Terminal Aerodrome Forecast
Issued by NWS Charleston, WV

Home | Current Version | Previous Version | Text Only | Print | Product List | Glossary On
Versions: 1 2 3 4 5 6 7 8 9 10 11 12 13 14 15 16 17 18 19 20 21 22 23 24 25 26
000
FTUS41 KRLX 221700 RRA
TAFCRW
TAF
KCRW 221741Z 2218/2318 04003KT P6SM VCTS BKN007 BKN015CB OVC025
      TEMPO 2218/2221 6SM BR FEW007 SCT015
     FM222100 24006KT 4SM +TSRA BR BKN025CB OVC040
     FM230100 VRB03KT 5SM BR BKN028
     FM230600 VRB03KT 4SM BR BKN022
     FM230900 00000KT 2SM BR BKN006
     FM231200 00000KT 4SM BR BKN012
     FM231600 00000KT P6SM BKN023=

USA.gov is the U.S. government's official web portal to all federal, state and local government web resources and services.